sensor_id;sensor_type;location;lat;lon;timestamp;temperature;humidity
28773;DHT22;15925;51.222;5.678;2023-04-01T00:00:50;10.40;99.90
28773;DHT22;15925;51.222;5.678;2023-04-01T00:03:18;10.40;99.90
28773;DHT22;15925;51.222;5.678;2023-04-01T00:05:44;10.40;99.90
28773;DHT22;15925;51.222;5.678;2023-04-01T00:08:10;10.50;99.90
28773;DHT22;15925;51.222;5.678;2023-04-01T00:10:36;10.50;99.90
28773;DHT22;15925;51.222;5.678;2023-04-01T00:13:02;10.40;99.90
28773;DHT22;15925;51.222;5.678;2023-04-01T00:15:28;10.40;99.90
28773;DHT22;15925;51.222;5.678;2023-04-01T00:17:54;10.40;99.90
28773;DHT22;15925;51.222;5.678;2023-04-01T00:20:20;10.40;99.90
28773;DHT22;15925;51.222;5.678;2023-04-01T00:22:46;10.40;99.90
28773;DHT22;15925;51.222;5.678;2023-04-01T00:25:13;10.40;99.90
28773;DHT22;15925;51.222;5.678;2023-04-01T00:27:39;10.40;99.90
28773;DHT22;15925;51.222;5.678;2023-04-01T00:30:05;10.40;99.90
28773;DHT22;15925;51.222;5.678;2023-04-01T00:32:31;10.40;99.90
28773;DHT22;15925;51.222;5.678;2023-04-01T00:34:57;10.40;99.90
28773;DHT22;15925;51.222;5.678;2023-04-01T00:37:27;10.40;99.90
28773;DHT22;15925;51.222;5.678;2023-04-01T00:39:54;10.40;99.90
28773;DHT22;15925;51.222;5.678;2023-04-01T00:42:20;10.40;99.90
28773;DHT22;15925;51.222;5.678;2023-04-01T00:44:55;10.40;99.90
28773;DHT22;15925;51.222;5.678;2023-04-01T00:47:22;10.40;99.90
28773;DHT22;15925;51.222;5.678;2023-04-01T00:49:51;10.40;99.90
28773;DHT22;15925;51.222;5.678;2023-04-01T00:52:20;10.40;99.90
28773;DHT22;15925;51.222;5.678;2023-04-01T00:54:50;10.40;99.90
28773;DHT22;15925;51.222;5.678;2023-04-01T00:57:24;10.40;99.90
28773;DHT22;15925;51.222;5.678;2023-04-01T00:59:52;10.40;99.90
28773;DHT22;15925;51.222;5.678;2023-04-01T01:02:20;10.40;99.90
28773;DHT22;15925;51.222;5.678;2023-04-01T01:04:46;10.40;99.90
28773;DHT22;15925;51.222;5.678;2023-04-01T01:10:17;10.40;99.90
28773;DHT22;15925;51.222;5.678;2023-04-01T01:12:57;10.40;99.90
28773;DHT22;15925;51.222;5.678;2023-04-01T01:15:36;10.40;99.90
28773;DHT22;15925;51.222;5.678;2023-04-01T01:27:03;10.30;99.90
28773;DHT22;15925;51.222;5.678;2023-04-01T01:37:39;10.30;99.90
28773;DHT22;15925;51.222;5.678;2023-04-01T01:40:09;10.30;99.90
28773;DHT22;15925;51.222;5.678;2023-04-01T01:42:40;10.30;99.90
28773;DHT22;15925;51.222;5.678;2023-04-01T01:45:09;10.30;99.90
28773;DHT22;15925;51.222;5.678;2023-04-01T01:47:36;10.30;99.90
28773;DHT22;15925;51.222;5.678;2023-04-01T01:50:04;10.30;99.90
28773;DHT22;15925;51.222;5.678;2023-04-01T01:52:30;10.30;99.90
28773;DHT22;15925;51.222;5.678;2023-04-01T01:54:57;10.30;99.90
28773;DHT22;15925;51.222;5.678;2023-04-01T01:57:31;10.30;99.90
28773;DHT22;15925;51.222;5.678;2023-04-01T02:00:06;10.30;99.90
28773;DHT22;15925;51.222;5.678;2023-04-01T02:02:42;10.40;99.90
28773;DHT22;15925;51.222;5.678;2023-04-01T02:05:11;10.30;99.90
28773;DHT22;15925;51.222;5.678;2023-04-01T02:07:37;10.30;99.90
28773;DHT22;15925;51.222;5.678;2023-04-01T02:10:05;10.30;99.90
28773;DHT22;15925;51.222;5.678;2023-04-01T02:12:32;10.30;99.90
28773;DHT22;15925;51.222;5.678;2023-04-01T02:15:07;10.30;99.90
28773;DHT22;15925;51.222;5.678;2023-04-01T02:17:38;10.30;99.90
28773;DHT22;15925;51.222;5.678;2023-04-01T02:20:13;10.30;99.90
28773;DHT22;15925;51.222;5.678;2023-04-01T02:22:44;10.30;99.90
28773;DHT22;15925;51.222;5.678;2023-04-01T02:25:16;10.30;99.90
28773;DHT22;15925;51.222;5.678;2023-04-01T02:27:44;10.30;99.90
28773;DHT22;15925;51.222;5.678;2023-04-01T02:30:12;10.30;99.90
28773;DHT22;15925;51.222;5.678;2023-04-01T02:32:39;10.40;99.90
28773;DHT22;15925;51.222;5.678;2023-04-01T02:35:16;10.30;99.90
28773;DHT22;15925;51.222;5.678;2023-04-01T02:37:43;10.40;99.90
28773;DHT22;15925;51.222;5.678;2023-04-01T02:40:14;10.30;99.90
28773;DHT22;15925;51.222;5.678;2023-04-01T02:42:40;10.30;99.90
28773;DHT22;15925;51.222;5.678;2023-04-01T02:45:07;10.30;99.90
28773;DHT22;15925;51.222;5.678;2023-04-01T02:47:33;10.40;99.90
28773;DHT22;15925;51.222;5.678;2023-04-01T02:50:00;10.30;99.90
28773;DHT22;15925;51.222;5.678;2023-04-01T02:52:28;10.30;99.90
28773;DHT22;15925;51.222;5.678;2023-04-01T02:54:56;10.30;99.90
28773;DHT22;15925;51.222;5.678;2023-04-01T02:57:23;10.30;99.90
28773;DHT22;15925;51.222;5.678;2023-04-01T02:59:49;10.30;99.90
28773;DHT22;15925;51.222;5.678;2023-04-01T03:02:15;10.30;99.90
28773;DHT22;15925;51.222;5.678;2023-04-01T03:04:41;10.30;99.90
28773;DHT22;15925;51.222;5.678;2023-04-01T03:07:07;10.30;99.90
28773;DHT22;15925;51.222;5.678;2023-04-01T03:09:34;10.30;99.90
28773;DHT22;15925;51.222;5.678;2023-04-01T03:11:59;10.30;99.90
28773;DHT22;15925;51.222;5.678;2023-04-01T03:14:26;10.30;99.90
28773;DHT22;15925;51.222;5.678;2023-04-01T03:16:52;10.30;99.90
28773;DHT22;15925;51.222;5.678;2023-04-01T03:19:18;10.30;99.90
28773;DHT22;15925;51.222;5.678;2023-04-01T03:21:44;10.30;99.90
28773;DHT22;15925;51.222;5.678;2023-04-01T03:24:10;10.30;99.90
28773;DHT22;15925;51.222;5.678;2023-04-01T03:26:36;10.30;99.90
28773;DHT22;15925;51.222;5.678;2023-04-01T03:29:02;10.30;99.90
28773;DHT22;15925;51.222;5.678;2023-04-01T03:31:28;10.30;99.90
28773;DHT22;15925;51.222;5.678;2023-04-01T03:33:56;10.20;99.90
28773;DHT22;15925;51.222;5.678;2023-04-01T03:36:22;10.20;99.90
28773;DHT22;15925;51.222;5.678;2023-04-01T03:38:48;10.20;99.90
28773;DHT22;15925;51.222;5.678;2023-04-01T03:41:20;10.20;99.90
28773;DHT22;15925;51.222;5.678;2023-04-01T03:43:46;10.20;99.90
28773;DHT22;15925;51.222;5.678;2023-04-01T03:46:20;10.20;99.90
28773;DHT22;15925;51.222;5.678;2023-04-01T03:48:46;10.20;99.90
28773;DHT22;15925;51.222;5.678;2023-04-01T03:51:12;10.20;99.90
28773;DHT22;15925;51.222;5.678;2023-04-01T03:53:38;10.20;99.90
28773;DHT22;15925;51.222;5.678;2023-04-01T03:56:06;10.20;99.90
28773;DHT22;15925;51.222;5.678;2023-04-01T03:58:35;10.20;99.90
28773;DHT22;15925;51.222;5.678;2023-04-01T04:01:02;10.20;99.90
28773;DHT22;15925;51.222;5.678;2023-04-01T04:03:28;10.20;99.90
28773;DHT22;15925;51.222;5.678;2023-04-01T04:05:55;10.20;99.90
28773;DHT22;15925;51.222;5.678;2023-04-01T04:08:22;10.20;99.90
28773;DHT22;15925;51.222;5.678;2023-04-01T04:10:55;10.10;99.90
28773;DHT22;15925;51.222;5.678;2023-04-01T04:13:21;10.10;99.90
28773;DHT22;15925;51.222;5.678;2023-04-01T04:15:54;10.10;99.90
28773;DHT22;15925;51.222;5.678;2023-04-01T04:18:20;10.10;99.90
28773;DHT22;15925;51.222;5.678;2023-04-01T04:20:46;10.10;99.90
28773;DHT22;15925;51.222;5.678;2023-04-01T04:23:16;10.10;99.90
28773;DHT22;15925;51.222;5.678;2023-04-01T04:25:56;10.10;99.90
28773;DHT22;15925;51.222;5.678;2023-04-01T04:28:23;10.00;99.90
28773;DHT22;15925;51.222;5.678;2023-04-01T04:30:49;10.00;99.90
28773;DHT22;15925;51.222;5.678;2023-04-01T04:33:15;10.00;99.90
28773;DHT22;15925;51.222;5.678;2023-04-01T04:35:41;10.00;99.90
28773;DHT22;15925;51.222;5.678;2023-04-01T04:38:08;10.00;99.90
28773;DHT22;15925;51.222;5.678;2023-04-01T04:40:36;10.00;99.90
28773;DHT22;15925;51.222;5.678;2023-04-01T04:43:03;10.00;99.90
28773;DHT22;15925;51.222;5.678;2023-04-01T04:45:29;10.00;99.90
28773;DHT22;15925;51.222;5.678;2023-04-01T04:47:56;10.00;99.90
28773;DHT22;15925;51.222;5.678;2023-04-01T04:50:23;10.00;99.90
28773;DHT22;15925;51.222;5.678;2023-04-01T04:52:49;10.00;99.90
28773;DHT22;15925;51.222;5.678;2023-04-01T04:55:15;10.00;99.90
28773;DHT22;15925;51.222;5.678;2023-04-01T04:57:44;10.00;99.90
28773;DHT22;15925;51.222;5.678;2023-04-01T05:00:11;10.00;99.90
28773;DHT22;15925;51.222;5.678;2023-04-01T05:02:46;10.00;99.90
28773;DHT22;15925;51.222;5.678;2023-04-01T05:05:12;10.00;99.90
28773;DHT22;15925;51.222;5.678;2023-04-01T05:07:38;10.00;99.90
28773;DHT22;15925;51.222;5.678;2023-04-01T05:10:04;10.00;99.90
28773;DHT22;15925;51.222;5.678;2023-04-01T05:12:30;10.00;99.90
28773;DHT22;15925;51.222;5.678;2023-04-01T05:15:00;10.00;99.90
28773;DHT22;15925;51.222;5.678;2023-04-01T05:17:26;10.00;99.90
28773;DHT22;15925;51.222;5.678;2023-04-01T05:19:52;10.00;99.90
28773;DHT22;15925;51.222;5.678;2023-04-01T05:22:19;10.00;99.90
28773;DHT22;15925;51.222;5.678;2023-04-01T05:24:45;10.00;99.90
28773;DHT22;15925;51.222;5.678;2023-04-01T05:27:12;9.90;99.90
28773;DHT22;15925;51.222;5.678;2023-04-01T05:29:39;9.90;99.90
28773;DHT22;15925;51.222;5.678;2023-04-01T05:32:08;9.90;99.90
28773;DHT22;15925;51.222;5.678;2023-04-01T05:34:34;9.90;99.90
28773;DHT22;15925;51.222;5.678;2023-04-01T05:37:01;9.80;99.90
28773;DHT22;15925;51.222;5.678;2023-04-01T05:39:27;9.90;99.90
28773;DHT22;15925;51.222;5.678;2023-04-01T05:41:52;9.90;99.90
28773;DHT22;15925;51.222;5.678;2023-04-01T05:44:18;9.80;99.90
28773;DHT22;15925;51.222;5.678;2023-04-01T05:47:14;9.90;99.90
28773;DHT22;15925;51.222;5.678;2023-04-01T05:49:39;9.80;99.90
28773;DHT22;15925;51.222;5.678;2023-04-01T05:52:05;9.80;99.90
28773;DHT22;15925;51.222;5.678;2023-04-01T05:54:34;9.80;99.90
28773;DHT22;15925;51.222;5.678;2023-04-01T05:57:00;9.80;99.90
28773;DHT22;15925;51.222;5.678;2023-04-01T05:59:26;9.80;99.90
28773;DHT22;15925;51.222;5.678;2023-04-01T06:01:52;9.80;99.90
28773;DHT22;15925;51.222;5.678;2023-04-01T06:04:18;9.80;99.90
28773;DHT22;15925;51.222;5.678;2023-04-01T06:06:45;9.70;99.90
28773;DHT22;15925;51.222;5.678;2023-04-01T06:09:21;9.70;99.90
28773;DHT22;15925;51.222;5.678;2023-04-01T06:12:27;9.70;99.90
28773;DHT22;15925;51.222;5.678;2023-04-01T06:15:44;9.70;99.90
28773;DHT22;15925;51.222;5.678;2023-04-01T06:29:53;9.70;99.90
28773;DHT22;15925;51.222;5.678;2023-04-01T06:40:55;9.80;99.90
28773;DHT22;15925;51.222;5.678;2023-04-01T06:44:09;9.70;99.90
28773;DHT22;15925;51.222;5.678;2023-04-01T06:53:23;9.80;99.90
28773;DHT22;15925;51.222;5.678;2023-04-01T06:56:11;9.80;99.90
28773;DHT22;15925;51.222;5.678;2023-04-01T06:59:02;9.90;99.90
28773;DHT22;15925;51.222;5.678;2023-04-01T07:01:34;9.80;99.90
28773;DHT22;15925;51.222;5.678;2023-04-01T07:04:30;9.90;99.90
28773;DHT22;15925;51.222;5.678;2023-04-01T07:07:08;9.90;99.90
28773;DHT22;15925;51.222;5.678;2023-04-01T07:09:52;9.90;99.90
28773;DHT22;15925;51.222;5.678;2023-04-01T07:15:33;9.90;99.90
28773;DHT22;15925;51.222;5.678;2023-04-01T07:18:16;9.90;99.90
28773;DHT22;15925;51.222;5.678;2023-04-01T07:20:44;9.90;99.90
28773;DHT22;15925;51.222;5.678;2023-04-01T07:23:20;9.90;99.90
28773;DHT22;15925;51.222;5.678;2023-04-01T07:26:11;9.90;99.90
28773;DHT22;15925;51.222;5.678;2023-04-01T07:28:57;9.80;99.90
28773;DHT22;15925;51.222;5.678;2023-04-01T07:39:30;9.80;99.90
28773;DHT22;15925;51.222;5.678;2023-04-01T07:45:08;9.90;99.90
28773;DHT22;15925;51.222;5.678;2023-04-01T07:50:30;9.90;99.90
28773;DHT22;15925;51.222;5.678;2023-04-01T08:07:36;10.00;99.90
28773;DHT22;15925;51.222;5.678;2023-04-01T08:13:44;10.00;99.90
28773;DHT22;15925;51.222;5.678;2023-04-01T08:17:49;9.90;99.90
28773;DHT22;15925;51.222;5.678;2023-04-01T08:23:12;10.00;99.90
28773;DHT22;15925;51.222;5.678;2023-04-01T08:31:21;10.00;99.90
28773;DHT22;15925;51.222;5.678;2023-04-01T08:33:49;10.00;99.90
28773;DHT22;15925;51.222;5.678;2023-04-01T08:36:26;10.00;99.90
28773;DHT22;15925;51.222;5.678;2023-04-01T08:42:55;10.00;99.90
28773;DHT22;15925;51.222;5.678;2023-04-01T08:56:50;10.10;99.90
28773;DHT22;15925;51.222;5.678;2023-04-01T09:02:39;10.10;99.90
28773;DHT22;15925;51.222;5.678;2023-04-01T09:11:28;10.20;99.90
28773;DHT22;15925;51.222;5.678;2023-04-01T09:14:53;10.30;99.90
28773;DHT22;15925;51.222;5.678;2023-04-01T09:20:53;10.30;99.90
28773;DHT22;15925;51.222;5.678;2023-04-01T09:23:42;10.30;99.90
28773;DHT22;15925;51.222;5.678;2023-04-01T09:38:04;10.40;99.90
28773;DHT22;15925;51.222;5.678;2023-04-01T09:50:27;10.30;99.90
28773;DHT22;15925;51.222;5.678;2023-04-01T09:52:38;10.30;99.90
28773;DHT22;15925;51.222;5.678;2023-04-01T09:55:49;10.30;99.90
28773;DHT22;15925;51.222;5.678;2023-04-01T10:08:14;10.40;99.90
28773;DHT22;15925;51.222;5.678;2023-04-01T10:11:14;10.30;99.90
28773;DHT22;15925;51.222;5.678;2023-04-01T10:34:47;10.50;99.90
28773;DHT22;15925;51.222;5.678;2023-04-01T10:43:53;10.50;99.90
28773;DHT22;15925;51.222;5.678;2023-04-01T10:49:06;10.60;99.90
28773;DHT22;15925;51.222;5.678;2023-04-01T11:11:00;10.80;99.90
28773;DHT22;15925;51.222;5.678;2023-04-01T11:25:16;10.90;99.90
28773;DHT22;15925;51.222;5.678;2023-04-01T11:33:28;10.90;99.90
28773;DHT22;15925;51.222;5.678;2023-04-01T11:44:29;11.10;99.90
28773;DHT22;15925;51.222;5.678;2023-04-01T11:47:33;11.00;99.90
28773;DHT22;15925;51.222;5.678;2023-04-01T12:01:07;11.50;99.90
28773;DHT22;15925;51.222;5.678;2023-04-01T12:09:37;11.40;99.90
28773;DHT22;15925;51.222;5.678;2023-04-01T12:15:20;11.50;99.90
28773;DHT22;15925;51.222;5.678;2023-04-01T12:17:54;11.50;99.90
28773;DHT22;15925;51.222;5.678;2023-04-01T12:26:05;11.50;99.90
28773;DHT22;15925;51.222;5.678;2023-04-01T12:29:10;11.40;99.90
28773;DHT22;15925;51.222;5.678;2023-04-01T12:48:31;11.40;99.90
28773;DHT22;15925;51.222;5.678;2023-04-01T13:02:36;11.30;99.90
28773;DHT22;15925;51.222;5.678;2023-04-01T13:10:38;11.20;99.90
28773;DHT22;15925;51.222;5.678;2023-04-01T13:34:35;11.20;99.90
28773;DHT22;15925;51.222;5.678;2023-04-01T13:40:48;11.20;99.90
28773;DHT22;15925;51.222;5.678;2023-04-01T13:43:22;11.20;99.90
28773;DHT22;15925;51.222;5.678;2023-04-01T13:46:27;11.20;99.90
28773;DHT22;15925;51.222;5.678;2023-04-01T13:55:05;11.30;99.90
28773;DHT22;15925;51.222;5.678;2023-04-01T14:11:37;11.20;99.90
28773;DHT22;15925;51.222;5.678;2023-04-01T14:33:57;11.00;99.90
28773;DHT22;15925;51.222;5.678;2023-04-01T14:36:31;11.10;99.90
28773;DHT22;15925;51.222;5.678;2023-04-01T14:45:20;11.00;99.90
28773;DHT22;15925;51.222;5.678;2023-04-01T14:50:46;10.90;99.90
28773;DHT22;15925;51.222;5.678;2023-04-01T14:53:23;10.90;99.90
28773;DHT22;15925;51.222;5.678;2023-04-01T14:58:22;10.90;99.90
28773;DHT22;15925;51.222;5.678;2023-04-01T15:18:17;10.80;99.90
28773;DHT22;15925;51.222;5.678;2023-04-01T15:31:45;10.90;99.90
28773;DHT22;15925;51.222;5.678;2023-04-01T15:38:06;10.80;99.90
28773;DHT22;15925;51.222;5.678;2023-04-01T15:40:16;10.90;99.90
28773;DHT22;15925;51.222;5.678;2023-04-01T15:42:59;10.80;99.90
28773;DHT22;15925;51.222;5.678;2023-04-01T15:45:39;10.80;99.90
28773;DHT22;15925;51.222;5.678;2023-04-01T15:50:44;10.80;99.90
28773;DHT22;15925;51.222;5.678;2023-04-01T16:01:16;10.70;99.90
28773;DHT22;15925;51.222;5.678;2023-04-01T16:07:28;10.60;99.90
28773;DHT22;15925;51.222;5.678;2023-04-01T16:10:07;10.60;99.90
28773;DHT22;15925;51.222;5.678;2023-04-01T16:15:33;10.60;99.90
28773;DHT22;15925;51.222;5.678;2023-04-01T16:26:16;10.60;99.90
28773;DHT22;15925;51.222;5.678;2023-04-01T16:36:54;10.50;99.90
28773;DHT22;15925;51.222;5.678;2023-04-01T16:39:35;10.50;99.90
28773;DHT22;15925;51.222;5.678;2023-04-01T16:44:53;10.50;99.90
28773;DHT22;15925;51.222;5.678;2023-04-01T16:47:22;10.40;99.90
28773;DHT22;15925;51.222;5.678;2023-04-01T16:53:25;10.40;99.90
28773;DHT22;15925;51.222;5.678;2023-04-01T16:55:55;10.40;99.90
28773;DHT22;15925;51.222;5.678;2023-04-01T16:58:36;10.40;99.90
28773;DHT22;15925;51.222;5.678;2023-04-01T17:04:19;10.40;99.90
28773;DHT22;15925;51.222;5.678;2023-04-01T17:06:54;10.40;99.90
28773;DHT22;15925;51.222;5.678;2023-04-01T17:09:51;10.40;99.90
28773;DHT22;15925;51.222;5.678;2023-04-01T17:24:00;10.40;99.90
28773;DHT22;15925;51.222;5.678;2023-04-01T17:48:44;10.20;99.90
28773;DHT22;15925;51.222;5.678;2023-04-01T17:51:23;10.20;99.90
28773;DHT22;15925;51.222;5.678;2023-04-01T17:53:58;10.20;99.90
28773;DHT22;15925;51.222;5.678;2023-04-01T17:56:54;10.30;99.90
28773;DHT22;15925;51.222;5.678;2023-04-01T17:59:37;10.30;99.90
28773;DHT22;15925;51.222;5.678;2023-04-01T18:08:07;10.20;99.90
28773;DHT22;15925;51.222;5.678;2023-04-01T18:10:51;10.30;99.90
28773;DHT22;15925;51.222;5.678;2023-04-01T18:18:46;10.30;99.90
28773;DHT22;15925;51.222;5.678;2023-04-01T18:27:04;10.20;99.90
28773;DHT22;15925;51.222;5.678;2023-04-01T18:29:52;10.20;99.90
28773;DHT22;15925;51.222;5.678;2023-04-01T18:32:35;10.10;99.90
28773;DHT22;15925;51.222;5.678;2023-04-01T18:35:19;10.00;99.90
28773;DHT22;15925;51.222;5.678;2023-04-01T18:49:29;10.10;99.90
28773;DHT22;15925;51.222;5.678;2023-04-01T18:51:58;10.10;99.90
28773;DHT22;15925;51.222;5.678;2023-04-01T18:54:32;10.10;99.90
28773;DHT22;15925;51.222;5.678;2023-04-01T18:57:08;10.20;99.90
28773;DHT22;15925;51.222;5.678;2023-04-01T18:59:48;10.20;99.90
28773;DHT22;15925;51.222;5.678;2023-04-01T19:02:45;10.20;99.90
28773;DHT22;15925;51.222;5.678;2023-04-01T19:05:31;10.20;99.90
28773;DHT22;15925;51.222;5.678;2023-04-01T19:11:00;10.30;99.90
28773;DHT22;15925;51.222;5.678;2023-04-01T19:21:42;10.30;99.90
28773;DHT22;15925;51.222;5.678;2023-04-01T19:32:25;10.40;99.90
28773;DHT22;15925;51.222;5.678;2023-04-01T19:35:17;10.40;99.90
28773;DHT22;15925;51.222;5.678;2023-04-01T19:46:28;10.30;99.90
28773;DHT22;15925;51.222;5.678;2023-04-01T19:51:39;10.20;99.90
28773;DHT22;15925;51.222;5.678;2023-04-01T19:59:59;10.10;99.90
28773;DHT22;15925;51.222;5.678;2023-04-01T20:02:56;10.10;99.90
28773;DHT22;15925;51.222;5.678;2023-04-01T20:08:49;10.10;99.90
28773;DHT22;15925;51.222;5.678;2023-04-01T20:11:30;10.10;99.90
28773;DHT22;15925;51.222;5.678;2023-04-01T20:14:25;10.00;99.90
28773;DHT22;15925;51.222;5.678;2023-04-01T20:25:30;10.00;99.90
28773;DHT22;15925;51.222;5.678;2023-04-01T20:30:55;9.90;99.90
28773;DHT22;15925;51.222;5.678;2023-04-01T21:00:24;9.80;99.90
28773;DHT22;15925;51.222;5.678;2023-04-01T21:06:25;9.60;99.90
28773;DHT22;15925;51.222;5.678;2023-04-01T21:22:26;9.50;99.90
28773;DHT22;15925;51.222;5.678;2023-04-01T21:27:52;9.40;99.90
28773;DHT22;15925;51.222;5.678;2023-04-01T21:33:35;9.40;99.90
28773;DHT22;15925;51.222;5.678;2023-04-01T21:45:15;9.20;99.90
28773;DHT22;15925;51.222;5.678;2023-04-01T22:13:26;9.10;99.90
28773;DHT22;15925;51.222;5.678;2023-04-01T22:19:11;9.10;99.90
28773;DHT22;15925;51.222;5.678;2023-04-01T22:24:25;9.00;99.90
28773;DHT22;15925;51.222;5.678;2023-04-01T22:32:50;8.90;99.90
28773;DHT22;15925;51.222;5.678;2023-04-01T22:43:41;8.80;99.90
28773;DHT22;15925;51.222;5.678;2023-04-01T22:49:27;8.70;99.90
28773;DHT22;15925;51.222;5.678;2023-04-01T22:51:56;8.60;99.90
28773;DHT22;15925;51.222;5.678;2023-04-01T22:55:33;8.60;99.90
28773;DHT22;15925;51.222;5.678;2023-04-01T22:57:41;8.60;99.90
28773;DHT22;15925;51.222;5.678;2023-04-01T23:00:24;8.50;99.90
28773;DHT22;15925;51.222;5.678;2023-04-01T23:03:38;8.50;99.90
28773;DHT22;15925;51.222;5.678;2023-04-01T23:05:58;8.40;99.90
28773;DHT22;15925;51.222;5.678;2023-04-01T23:28:15;8.40;99.90
28773;DHT22;15925;51.222;5.678;2023-04-01T23:35:55;8.20;99.90
28773;DHT22;15925;51.222;5.678;2023-04-01T23:38:24;8.20;99.90
28773;DHT22;15925;51.222;5.678;2023-04-01T23:40:53;8.10;99.90
28773;DHT22;15925;51.222;5.678;2023-04-01T23:43:46;8.10;99.90
28773;DHT22;15925;51.222;5.678;2023-04-01T23:46:16;8.00;99.90
28773;DHT22;15925;51.222;5.678;2023-04-01T23:48:45;8.00;99.90
28773;DHT22;15925;51.222;5.678;2023-04-01T23:51:24;8.00;99.90
28773;DHT22;15925;51.222;5.678;2023-04-01T23:56:23;7.90;99.90
28773;DHT22;15925;51.222;5.678;2023-04-01T23:58:57;7.90;99.90
